Flood From: 24-02-2018 06:00 Until: 25-02-2018 06:00 warning for: Flood Level: Yellow info button

Although rather usual in this region, locally or potentially dangerous phenomena are expected. (such as local winds, summer thunderstorms, rising streams or high waves) Be aware and pay attention to the latest weather updates, especially if you carry out activities exposed to weather or close to a stream or shoreline. 


Meteo18 Weather Cam more information Meteo18 Weather Cam


Thunder radar more information blitzortung!


Rain radar more information rain snow radar


Visit our other weather sites:

Template documentation
and downloads

And another site



Weather Underground History page Text

Daily Summary for September 1, 2017 Units:  Metric    English   Both
« Previous Day
Next Day »
Daily Weekly Monthly Yearly Custom
  High: Low: Average:
Temperature: -17.8 °C -12.9 °C -10.3 °C
Dew Point: -17.8 °C -13.3 °C -12.1 °C
Humidity: Humidity % 47 % 81 %
Wind Speed: 0 km/h 0 km/h 3.4 km/h
Wind Gust: 0 km/h - -
Wind:- - SSW
Pressure: 0 hPa 34544 hPa -
Precipitation: 38.1 mm    
Historical Graphs
 
 
Tabular Data for September 1, 2017
Time Temperature Dew Point Pressure Wind Wind Speed Wind Gust Humidity Rainfall Rate (Hourly)
-17.8 °C -17.8 °C 0 hPa Calm     Humidity % 0 mm
00:02 -10.4 °C -11.9 °C 34625.2 hPa Calm     83 % 0 mm
00:07 -10.4 °C -11.9 °C 34625.2 hPa Calm     83 % 0 mm
00:12 -10.3 °C -11.9 °C 34625.2 hPa Calm     83 % 0 mm
00:17 -10.3 °C -11.8 °C 34625.2 hPa Calm     84 % 0 mm
00:22 -10.3 °C -11.8 °C 34611.7 hPa Calm     84 % 0 mm
00:32 -10.4 °C -11.8 °C 34611.7 hPa Calm     85 % 0 mm
00:42 -10.6 °C -11.9 °C 34625.2 hPa Calm     85 % 0 mm
00:47 -10.6 °C -12 °C 34611.7 hPa Calm     85 % 0 mm
00:52 -10.6 °C -12 °C 34611.7 hPa Calm     85 % 0 mm
01:02 -10.9 °C -12.3 °C 34611.7 hPa Calm     85 % 0 mm
01:12 -10.9 °C -12.3 °C 34611.7 hPa Calm     84 % 0 mm
01:17 -10.8 °C -12.2 °C 34611.7 hPa Calm     84 % 0 mm
01:22 -10.7 °C -12 °C 34611.7 hPa Calm     86 % 0 mm
01:27 -10.7 °C -12 °C 34611.7 hPa Calm     86 % 0 mm
01:32 -10.8 °C -12.2 °C 34611.7 hPa Calm     85 % 0 mm
01:42 -11.1 °C -12.2 °C 34611.7 hPa Calm     87 % 0 mm
01:47 -11.1 °C -12.4 °C 34611.7 hPa Calm     86 % 0 mm
01:52 -11.2 °C -12.4 °C 34611.7 hPa Calm     87 % 0 mm
02:02 -11.3 °C -12.4 °C 34611.7 hPa Calm     87 % 0 mm
02:07 -11.3 °C -12.3 °C 34611.7 hPa Calm     88 % 0 mm
02:12 -11.3 °C -12.4 °C 34601.5 hPa Calm     88 % 0 mm
02:22 -11.4 °C -12.4 °C 34601.5 hPa Calm     88 % 0 mm
02:32 -11.4 °C -12.4 °C 34601.5 hPa Calm     89 % 0 mm
02:42 -11.4 °C -12.6 °C 34601.5 hPa Calm     87 % 0 mm
02:47 -11.4 °C -12.6 °C 34601.5 hPa Calm     87 % 0 mm
02:52 -11.4 °C -12.6 °C 34601.5 hPa Calm     87 % 0 mm
03:02 -11.6 °C -12.7 °C 34601.5 hPa Calm     87 % 0 mm
03:07 -11.6 °C -12.7 °C 34601.5 hPa Calm     88 % 0 mm
03:12 -11.6 °C -12.7 °C 34601.5 hPa Calm     88 % 0 mm
03:17 -11.7 °C -12.8 °C 34601.5 hPa Calm     88 % 0 mm
03:22 -11.8 °C -12.8 °C 34601.5 hPa Calm     88 % 0 mm
03:27 -11.8 °C -12.8 °C 34591.4 hPa Calm     89 % 0 mm
03:32 -11.9 °C -12.8 °C 34591.4 hPa Calm     89 % 0 mm
03:37 -11.9 °C -12.9 °C 34591.4 hPa Calm     89 % 0 mm
03:42 -12 °C -12.9 °C 34591.4 hPa Calm     90 % 0 mm
03:47 -12 °C -12.9 °C 34591.4 hPa Calm     90 % 0 mm
03:52 -12 °C -12.9 °C 34591.4 hPa Calm     90 % 0 mm
03:57 -12.1 °C -12.8 °C 34591.4 hPa Calm     91 % 0 mm
04:02 -12.1 °C -12.8 °C 34601.5 hPa Calm     91 % 0 mm
04:12 -12.1 °C -12.9 °C 34591.4 hPa Calm     91 % 0 mm
04:17 -12.1 °C -12.9 °C 34591.4 hPa Calm     91 % 0 mm
04:22 -12.1 °C -12.9 °C 34591.4 hPa Calm     91 % 0 mm
04:27 -12.1 °C -12.9 °C 34591.4 hPa Calm     91 % 0 mm
04:32 -12.1 °C -12.8 °C 34591.4 hPa Calm     92 % 0 mm
04:42 -12.2 °C -12.9 °C 34591.4 hPa NE 7.7 km/h 10.3 km/h 91 % 0 mm
04:47 -12.2 °C -12.9 °C 34591.4 hPa Calm   10.3 km/h 92 % 0 mm
04:52 -12.2 °C -12.8 °C 34591.4 hPa NNE 2.6 km/h 10.3 km/h 93 % 0 mm
04:57 -12.2 °C -12.8 °C 34591.4 hPa NNE 2.6 km/h 7.7 km/h 92 % 0 mm
05:02 -12.2 °C -12.8 °C 34591.4 hPa Calm   7.7 km/h 92 % 0 mm
05:07 -12.1 °C -12.7 °C 34591.4 hPa Calm   5.1 km/h 93 % 0 mm
05:12 -12.1 °C -12.7 °C 34591.4 hPa ENE 5.1 km/h 5.1 km/h 93 % 0 mm
05:22 -12.2 °C -12.8 °C 34591.4 hPa Calm   10.3 km/h 92 % 0 mm
05:27 -12.2 °C -12.9 °C 34591.4 hPa Calm   7.7 km/h 92 % 0 mm
05:32 -12.3 °C -13 °C 34591.4 hPa Calm   7.7 km/h 92 % 0 mm
05:37 -12.4 °C -13.1 °C 34591.4 hPa Calm     92 % 0 mm
05:42 -12.4 °C -13.1 °C 34591.4 hPa Calm     92 % 0 mm
05:47 -12.4 °C -13.1 °C 34591.4 hPa Calm   2.6 km/h 93 % 0 mm
05:52 -12.4 °C -13.1 °C 34591.4 hPa NW 2.6 km/h 2.6 km/h 93 % 0 mm
05:57 -12.4 °C -13.1 °C 34591.4 hPa Calm   5.1 km/h 93 % 0 mm
06:02 -12.4 °C -13.1 °C 34591.4 hPa Calm   5.1 km/h 93 % 0 mm
06:12 -12.6 °C -13.3 °C 34591.4 hPa WNW 5.1 km/h 5.1 km/h 92 % 0 mm
06:17 -12.7 °C -13.3 °C 34591.4 hPa Calm   2.6 km/h 93 % 0 mm
06:22 -12.7 °C -13.2 °C 34591.4 hPa Calm   5.1 km/h 94 % 0 mm
06:27 -12.7 °C -13.2 °C 34591.4 hPa WNW 2.6 km/h 5.1 km/h 94 % 0 mm
06:32 -12.8 °C -13.3 °C 34591.4 hPa Calm   5.1 km/h 94 % 0 mm
06:37 -12.8 °C -13.3 °C 34591.4 hPa Calm   5.1 km/h 94 % 0 mm
06:42 -12.8 °C -13.3 °C 34591.4 hPa WNW 5.1 km/h 5.1 km/h 94 % 0 mm
06:47 -12.8 °C -13.3 °C 34591.4 hPa Calm   5.1 km/h 94 % 0 mm
06:52 -12.8 °C -13.3 °C 34591.4 hPa Calm   5.1 km/h 94 % 0 mm
06:57 -12.8 °C -13.3 °C 34591.4 hPa West 2.6 km/h 5.1 km/h 95 % 0 mm
07:02 -12.7 °C -13.2 °C 34591.4 hPa Calm   5.1 km/h 95 % 0 mm
07:07 -12.7 °C -13.2 °C 34591.4 hPa Calm   2.6 km/h 95 % 0 mm
07:12 -12.7 °C -13.2 °C 34591.4 hPa Calm   2.6 km/h 95 % 0 mm
07:17 -12.8 °C -13.3 °C 34591.4 hPa West 2.6 km/h 5.1 km/h 94 % 0 mm
07:22 -12.9 °C -13.3 °C 34591.4 hPa West 2.6 km/h 5.1 km/h 95 % 0 mm
07:27 -12.8 °C -13.3 °C 34591.4 hPa Calm   5.1 km/h 95 % 0 mm
07:32 -12.7 °C -13.2 °C 34591.4 hPa Calm   5.1 km/h 95 % 0 mm
07:37 -12.7 °C -13.2 °C 34591.4 hPa Calm   5.1 km/h 95 % 0 mm
07:42 -12.7 °C -13.2 °C 34591.4 hPa Calm   5.1 km/h 95 % 0 mm
07:47 -12.7 °C -13.1 °C 34591.4 hPa Calm     95 % 0 mm
07:52 -12.7 °C -13.2 °C 34591.4 hPa Calm     94 % 0 mm
07:57 -12.7 °C -13.1 °C 34591.4 hPa Calm   2.6 km/h 95 % 0 mm
08:02 -12.7 °C -13.1 °C 34591.4 hPa Calm   2.6 km/h 95 % 0 mm
08:07 -12.6 °C -13.1 °C 34591.4 hPa Calm     95 % 0 mm
08:12 -12.6 °C -13.1 °C 34591.4 hPa Calm     95 % 0 mm
08:17 -12.4 °C -12.9 °C 34591.4 hPa Calm   5.1 km/h 95 % 0 mm
08:22 -12.3 °C -12.8 °C 34591.4 hPa Calm   5.1 km/h 95 % 0 mm
08:32 -12.4 °C -12.9 °C 34591.4 hPa Calm   2.6 km/h 94 % 0 mm
08:37 -12.3 °C -12.8 °C 34591.4 hPa Calm   2.6 km/h 94 % 0 mm
08:42 -12.3 °C -12.8 °C 34591.4 hPa Calm   2.6 km/h 94 % 0 mm
08:47 -12.2 °C -12.7 °C 34601.5 hPa Calm     94 % 0 mm
08:57 -11.9 °C -12.4 °C 34591.4 hPa Calm     95 % 0 mm
09:02 -11.7 °C -12.2 °C 34591.4 hPa Calm     95 % 0 mm
09:07 -11.6 °C -12.1 °C 34591.4 hPa Calm   2.6 km/h 94 % 0 mm
09:12 -11.3 °C -11.8 °C 34591.4 hPa Calm   2.6 km/h 94 % 0 mm
09:22 -10.9 °C -11.7 °C 34591.4 hPa Calm   2.6 km/h 91 % 0 mm
09:27 -10.8 °C -11.8 °C 34591.4 hPa Calm   2.6 km/h 89 % 0 mm
09:32 -10.5 °C -11.4 °C 34591.4 hPa Calm   2.6 km/h 90 % 0 mm
09:37 -10.1 °C -11.4 °C 34591.4 hPa Calm     86 % 0 mm
09:42 -9.9 °C -11.4 °C 34591.4 hPa Calm     84 % 0 mm
09:47 -9.6 °C -11.2 °C 34591.4 hPa Calm     82 % 0 mm
09:52 -9.7 °C -11.6 °C 34591.4 hPa Calm     80 % 0 mm
09:57 -9.6 °C -11.4 °C 34591.4 hPa Calm     81 % 0 mm
10:02 -9.5 °C -11.5 °C 34591.4 hPa Calm     79 % 0 mm
10:07 -9.3 °C -11.4 °C 34591.4 hPa Calm     78 % 0 mm
10:12 -9.3 °C -11.5 °C 34591.4 hPa Calm     77 % 0 mm
10:17 -9.2 °C -11.4 °C 34591.4 hPa Calm     77 % 0 mm
10:27 -9.1 °C -11.6 °C 34601.5 hPa Calm   2.6 km/h 74 % 0 mm
10:32 -8.8 °C -11.5 °C 34601.5 hPa Calm   2.6 km/h 73 % 0 mm
10:37 -8.6 °C -11.4 °C 34601.5 hPa Calm   5.1 km/h 72 % 0 mm
10:42 -8.6 °C -11.6 °C 34601.5 hPa ESE 7.7 km/h 7.7 km/h 70 % 0 mm
10:47 -8.7 °C -11.5 °C 34601.5 hPa SE 7.7 km/h 12.9 km/h 72 % 0 mm
10:52 -8.6 °C -11.3 °C 34601.5 hPa Calm   12.9 km/h 73 % 0 mm
10:57 -8.5 °C -11.4 °C 34601.5 hPa SSE 5.1 km/h 15.6 km/h 71 % 0 mm
11:02 -8.5 °C -11.3 °C 34601.5 hPa Calm   15.6 km/h 72 % 0 mm
11:07 -8.4 °C -11.5 °C 34601.5 hPa SW 7.7 km/h 15.6 km/h 70 % 0 mm
11:12 -8.4 °C -11.6 °C 34601.5 hPa SE 2.6 km/h 15.6 km/h 69 % 0 mm
11:22 -7.9 °C -11.4 °C 34601.5 hPa SSE 2.6 km/h 10.3 km/h 66 % 0 mm
11:27 -7.7 °C -11.2 °C 34591.4 hPa South 5.1 km/h 10.3 km/h 67 % 0 mm
11:32 -7.6 °C -11.3 °C 34601.5 hPa SW 7.7 km/h 10.3 km/h 65 % 0 mm
11:37 -7.7 °C -11.6 °C 34591.4 hPa SSW 2.6 km/h 10.3 km/h 64 % 0 mm
11:42 -7.7 °C -11.5 °C 34591.4 hPa SW 2.6 km/h 10.3 km/h 64 % 0 mm
11:47 -7.8 °C -11.6 °C 34591.4 hPa Calm   12.9 km/h 64 % 0 mm
11:57 -7.4 °C -11.6 °C 34591.4 hPa South 2.6 km/h 12.9 km/h 62 % 0 mm
12:02 -7.3 °C -11.4 °C 34591.4 hPa SSW 10.3 km/h 12.9 km/h 62 % 0 mm
12:12 -6.7 °C -11.2 °C 34591.4 hPa Calm   15.6 km/h 60 % 0 mm
12:17 -6.7 °C -12 °C 34591.4 hPa WSW 7.7 km/h 18.2 km/h 54 % 0 mm
12:22 -6.6 °C -11.9 °C 34577.8 hPa SE 2.6 km/h 18.2 km/h 54 % 0 mm
12:32 -6.3 °C -12.6 °C 34577.8 hPa SSW 5.1 km/h 18.2 km/h 48 % 0 mm
12:37 -6.5 °C -13 °C 34577.8 hPa West 5.1 km/h 15.6 km/h 47 % 0 mm
12:42 -6.6 °C -12.6 °C 34577.8 hPa WNW 2.6 km/h 15.6 km/h 50 % 0 mm
12:47 -6.8 °C -12.6 °C 34577.8 hPa WNW 15.6 km/h 15.6 km/h 51 % 0 mm
12:52 -7.4 °C -13.3 °C 34577.8 hPa WNW 23.3 km/h 33.6 km/h 50 % 0 mm
12:57 -8.2 °C -12.8 °C 34577.8 hPa North 12.9 km/h 44.1 km/h 58 % 0 mm
13:02 -8.8 °C -12.8 °C 34577.8 hPa NW 12.9 km/h 44.1 km/h 62 % 7.62 mm
13:12 -9.2 °C -12.7 °C 34577.8 hPa NW 10.3 km/h 23.3 km/h 66 % 12.7 mm
13:17 -9.5 °C -12.5 °C 34577.8 hPa NNW 12.9 km/h 23.3 km/h 70 % 12.7 mm
13:22 -9.4 °C -12.7 °C 34577.8 hPa NNW 12.9 km/h 28.5 km/h 68 % 20.32 mm
13:27 -9.3 °C -12.8 °C 34577.8 hPa North 10.3 km/h 28.5 km/h 66 % 20.32 mm
13:32 -9.2 °C -12.1 °C 34577.8 hPa NNW 5.1 km/h 23.3 km/h 71 % 20.32 mm
13:37 -9.6 °C -12 °C 34567.7 hPa NNW 10.3 km/h 23.3 km/h 75 % 20.32 mm
13:42 -9.4 °C -11.8 °C 34577.8 hPa NNE 12.9 km/h 20.8 km/h 76 % 25.4 mm
13:47 -9.4 °C -11.8 °C 34577.8 hPa NNW 15.6 km/h 23.3 km/h 75 % 25.4 mm
13:52 -9.3 °C -11.7 °C 34591.4 hPa NNW 12.9 km/h 31.1 km/h 75 % 25.4 mm
13:57 -9.2 °C -11.4 °C 34591.4 hPa NNE 10.3 km/h 31.1 km/h 77 % 25.4 mm
14:02 -9.1 °C -11.5 °C 34591.4 hPa NNE 15.6 km/h 31.1 km/h 75 % 20.32 mm
14:07 -9 °C -11.7 °C 34591.4 hPa ENE 15.6 km/h 23.3 km/h 73 % 20.32 mm
14:12 -9 °C -11.8 °C 34591.4 hPa ENE 5.1 km/h 23.3 km/h 72 % 12.7 mm
14:17 -9 °C -11.8 °C 34591.4 hPa Calm   23.3 km/h 72 % 12.7 mm
14:22 -8.9 °C -11.6 °C 34591.4 hPa ESE 2.6 km/h 18.2 km/h 73 % 7.62 mm
14:32 -8.9 °C -11.9 °C 34591.4 hPa Calm   10.3 km/h 71 % 7.62 mm
14:37 -9 °C -11.9 °C 34591.4 hPa East 10.3 km/h 15.6 km/h 71 % 7.62 mm
14:42 -9.1 °C -12.2 °C 34591.4 hPa ENE 10.3 km/h 15.6 km/h 70 % 0 mm
14:47 -9.1 °C -12.4 °C 34577.8 hPa NNE 10.3 km/h 15.6 km/h 68 % 0 mm
14:57 -9.1 °C -12.3 °C 34567.7 hPa NNE 12.9 km/h 15.6 km/h 68 % 0 mm
15:02 -9 °C -12.2 °C 34567.7 hPa NE 2.6 km/h 20.8 km/h 69 % 0 mm
15:12 -8.8 °C -12.1 °C 34567.7 hPa Calm   18.2 km/h 68 % 0 mm
15:17 -8.7 °C -12.3 °C 34567.7 hPa NNW 2.6 km/h 10.3 km/h 66 % 0 mm
15:22 -8.8 °C -11.6 °C 34567.7 hPa WNW 2.6 km/h 5.1 km/h 72 % 0 mm
15:32 -8.9 °C -11.6 °C 34554.1 hPa Calm   5.1 km/h 73 % 0 mm
15:42 -8.9 °C -11.2 °C 34554.1 hPa Calm   5.1 km/h 77 % 0 mm
15:47 -9.1 °C -11.3 °C 34554.1 hPa Calm   5.1 km/h 77 % 0 mm
15:52 -9.1 °C -11.2 °C 34554.1 hPa Calm   7.7 km/h 78 % 0 mm
15:57 -9.1 °C -11.2 °C 34554.1 hPa Calm   7.7 km/h 78 % 0 mm
16:02 -9.1 °C -11.2 °C 34554.1 hPa NE 2.6 km/h 7.7 km/h 78 % 0 mm
16:12 -9.1 °C -11.7 °C 34554.1 hPa NE 15.6 km/h 15.6 km/h 74 % 0 mm
16:17 -9.1 °C -11.8 °C 34554.1 hPa NE 10.3 km/h 20.8 km/h 72 % 0 mm
16:22 -9.1 °C -11.7 °C 34554.1 hPa NNE 15.6 km/h 20.8 km/h 73 % 0 mm
16:32 -9 °C -11.8 °C 34554.1 hPa North 2.6 km/h 20.8 km/h 72 % 0 mm
16:42 -8.9 °C -11.6 °C 34554.1 hPa NNE 7.7 km/h 10.3 km/h 73 % 0 mm
16:47 -8.8 °C -11.6 °C 34554.1 hPa NNW 5.1 km/h 12.9 km/h 72 % 0 mm
16:52 -8.8 °C -11.7 °C 34554.1 hPa NE 12.9 km/h 15.6 km/h 71 % 0 mm
16:57 -8.8 °C -11.8 °C 34554.1 hPa NE 10.3 km/h 20.8 km/h 70 % 0 mm
17:02 -8.8 °C -11.8 °C 34554.1 hPa NNE 7.7 km/h 20.8 km/h 70 % 0 mm
17:12 -8.7 °C -11.9 °C 34544 hPa NE 18.2 km/h 28.5 km/h 69 % 0 mm
17:17 -8.7 °C -11.7 °C 34544 hPa NNE 2.6 km/h 28.5 km/h 70 % 0 mm
17:22 -8.7 °C -11.7 °C 34544 hPa NNE 5.1 km/h 23.3 km/h 70 % 0 mm
17:32 -8.7 °C -11.6 °C 34544 hPa ENE 2.6 km/h 20.8 km/h 71 % 0 mm
17:37 -8.7 °C -11.7 °C 34544 hPa NNW 10.3 km/h 20.8 km/h 70 % 0 mm
17:42 -8.7 °C -11.5 °C 34544 hPa NW 5.1 km/h 23.3 km/h 72 % 0 mm
17:47 -8.6 °C -11.4 °C 34544 hPa NE 7.7 km/h 23.3 km/h 72 % 0 mm
17:52 -8.6 °C -11.6 °C 34544 hPa NE 10.3 km/h 23.3 km/h 70 % 0 mm
17:57 -8.5 °C -11.6 °C 34544 hPa NNE 2.6 km/h 12.9 km/h 70 % 0 mm
18:02 -8.4 °C -11.9 °C 34544 hPa NNE 10.3 km/h 12.9 km/h 67 % 0 mm
18:12 -8.4 °C -11.8 °C 34544 hPa NNE 10.3 km/h 15.6 km/h 67 % 0 mm
18:17 -8.4 °C -11.8 °C 34544 hPa NNE 2.6 km/h 15.6 km/h 67 % 0 mm
18:22 -8.4 °C -11.8 °C 34544 hPa NE 7.7 km/h 15.6 km/h 67 % 0 mm
18:32 -8.4 °C -12 °C 34544 hPa NE 2.6 km/h 20.8 km/h 66 % 0 mm
18:37 -8.5 °C -11.8 °C 34544 hPa Calm   12.9 km/h 68 % 0 mm
18:42 -8.6 °C -11.7 °C 34544 hPa Calm   7.7 km/h 69 % 0 mm
18:47 -8.6 °C -11.8 °C 34554.1 hPa Calm   7.7 km/h 68 % 0 mm
18:57 -8.7 °C -11.8 °C 34554.1 hPa Calm   2.6 km/h 69 % 0 mm
19:02 -8.7 °C -11.7 °C 34554.1 hPa Calm   2.6 km/h 71 % 0 mm
19:12 -8.8 °C -11.7 °C 34567.7 hPa West 2.6 km/h 2.6 km/h 71 % 0 mm
19:17 -8.9 °C -11.6 °C 34567.7 hPa West 15.6 km/h 15.6 km/h 73 % 0 mm
19:22 -8.9 °C -11.9 °C 34577.8 hPa West 18.2 km/h 20.8 km/h 71 % 0 mm
19:27 -9 °C -11.4 °C 34591.4 hPa West 23.3 km/h 23.3 km/h 75 % 0 mm
19:32 -9.1 °C -11.3 °C 34591.4 hPa West 10.3 km/h 38.8 km/h 77 % 0 mm
19:42 -9.3 °C -11.4 °C 34591.4 hPa WNW 12.9 km/h 25.9 km/h 78 % 0 mm
19:47 -9.3 °C -11.4 °C 34591.4 hPa West 12.9 km/h 23.3 km/h 78 % 0 mm
19:52 -9.3 °C -11.3 °C 34577.8 hPa West 5.1 km/h 23.3 km/h 79 % 0 mm
19:57 -9.4 °C -11.4 °C 34591.4 hPa West 12.9 km/h 20.8 km/h 79 % 0 mm
20:02 -9.4 °C -11.2 °C 34591.4 hPa NW 2.6 km/h 20.8 km/h 81 % 7.62 mm
20:12 -9.6 °C -11.4 °C 34591.4 hPa West 5.1 km/h 18.2 km/h 81 % 7.62 mm
20:17 -9.7 °C -11.3 °C 34591.4 hPa West 10.3 km/h 18.2 km/h 82 % 12.7 mm
20:22 -9.7 °C -11.3 °C 34591.4 hPa West 2.6 km/h 18.2 km/h 82 % 12.7 mm
20:27 -9.7 °C -11.3 °C 34591.4 hPa Calm   18.2 km/h 83 % 12.7 mm
20:32 -9.8 °C -11.4 °C 34591.4 hPa WNW 5.1 km/h 15.6 km/h 83 % 12.7 mm
20:42 -9.8 °C -11.2 °C 34591.4 hPa WNW 2.6 km/h 10.3 km/h 85 % 12.7 mm
20:52 -9.9 °C -11.3 °C 34591.4 hPa WNW 2.6 km/h 10.3 km/h 85 % 12.7 mm
20:57 -9.9 °C -11.3 °C 34591.4 hPa NW 5.1 km/h 10.3 km/h 85 % 12.7 mm
21:02 -10 °C -11.3 °C 34591.4 hPa WNW 5.1 km/h 10.3 km/h 86 % 7.62 mm
21:12 -10.1 °C -11.3 °C 34601.5 hPa WNW 10.3 km/h 10.3 km/h 86 % 0 mm
21:17 -10.1 °C -11.3 °C 34601.5 hPa West 2.6 km/h 10.3 km/h 86 % 0 mm
21:22 -10.1 °C -11.3 °C 34601.5 hPa West 2.6 km/h 10.3 km/h 86 % 0 mm
21:32 -10.1 °C -11.5 °C 34601.5 hPa Calm   7.7 km/h 85 % 0 mm
21:42 -10.1 °C -11.5 °C 34601.5 hPa Calm   7.7 km/h 85 % 0 mm
21:47 -10.1 °C -11.6 °C 34601.5 hPa Calm   7.7 km/h 84 % 0 mm
21:52 -10.2 °C -11.7 °C 34601.5 hPa NNW 2.6 km/h 5.1 km/h 84 % 0 mm
21:57 -10.2 °C -11.7 °C 34611.7 hPa NW 2.6 km/h 7.7 km/h 84 % 0 mm
22:02 -10.2 °C -11.7 °C 34611.7 hPa NW 2.6 km/h 7.7 km/h 84 % 0 mm
22:12 -10.2 °C -11.6 °C 34611.7 hPa NW 5.1 km/h 10.3 km/h 85 % 0 mm
22:17 -10.2 °C -11.5 °C 34611.7 hPa NW 2.6 km/h 10.3 km/h 86 % 0 mm
22:22 -10.3 °C -11.6 °C 34611.7 hPa WNW 7.7 km/h 10.3 km/h 86 % 0 mm
22:27 -10.3 °C -11.7 °C 34611.7 hPa WNW 2.6 km/h 10.3 km/h 85 % 0 mm
22:32 -10.3 °C -11.6 °C 34611.7 hPa NNW 5.1 km/h 10.3 km/h 86 % 0 mm
22:42 -10.3 °C -11.7 °C 34611.7 hPa WNW 2.6 km/h 10.3 km/h 85 % 0 mm
22:47 -10.3 °C -11.7 °C 34611.7 hPa NW 5.1 km/h 10.3 km/h 85 % 0 mm
22:52 -10.3 °C -11.6 °C 34611.7 hPa NW 5.1 km/h 10.3 km/h 86 % 0 mm
22:57 -10.4 °C -11.7 °C 34611.7 hPa Calm   10.3 km/h 86 % 0 mm
23:02 -10.4 °C -11.7 °C 34611.7 hPa WNW 2.6 km/h 10.3 km/h 86 % 0 mm
23:12 -10.5 °C -11.7 °C 34611.7 hPa Calm   7.7 km/h 87 % 0 mm
23:17 -10.5 °C -11.7 °C 34611.7 hPa Calm   7.7 km/h 87 % 0 mm
23:22 -10.5 °C -11.8 °C 34611.7 hPa NNW 2.6 km/h 7.7 km/h 86 % 0 mm
23:32 -10.4 °C -11.7 °C 34611.7 hPa Calm   5.1 km/h 86 % 0 mm
23:37 -10.4 °C -11.7 °C 34611.7 hPa Calm   5.1 km/h 86 % 0 mm
23:42 -10.4 °C -11.8 °C 34611.7 hPa NNW 2.6 km/h 2.6 km/h 85 % 0 mm
23:47 -10.4 °C -11.8 °C 34611.7 hPa NNW 2.6 km/h 2.6 km/h 85 % 0 mm
23:52 -10.4 °C -11.8 °C 34611.7 hPa WNW 2.6 km/h 5.1 km/h 85 % 0 mm
23:57 -10.5 °C -11.9 °C 34611.7 hPa West 2.6 km/h 5.1 km/h 85 % 0 mm
Meteo18
Compliments of Weather Underground - 4 mb

Script developed by  Jim McMurry - jmcmurry@mwt.net Adapted for the template by  Wim van der Kuil - Leuven-Template.eu

You find our weather info also at:

European Weather Network

Weather Underground

Equipment we use:

Weather-station
Davis Vue

Weather-program
Meteobridge

Weather-server
Raspberry PI 2 B+

Provider
1 and 1

Davis Vue

Meteobridge

Raspberry PI 2 B+

1 and 1